createdAt,value
2018-03-18T00:00:06.869Z,-3.99
2018-03-18T00:01:12.120Z,-3.99
2018-03-18T00:02:17.422Z,-3.96
2018-03-18T00:03:22.754Z,-3.86
2018-03-18T00:04:27.935Z,-3.90
2018-03-18T00:05:33.094Z,-3.89
2018-03-18T00:06:38.187Z,-4.00
2018-03-18T00:07:43.383Z,-4.16
2018-03-18T00:08:48.834Z,-4.18
2018-03-18T00:09:53.889Z,-4.16
2018-03-18T00:10:59.079Z,-4.05
2018-03-18T00:12:04.156Z,-3.99
2018-03-18T00:13:09.219Z,-4.06
2018-03-18T00:14:14.449Z,-4.10
2018-03-18T00:15:19.733Z,-3.97
2018-03-18T00:16:25.141Z,-4.07
2018-03-18T00:17:30.368Z,-4.00
2018-03-18T00:18:35.584Z,-3.84
2018-03-18T00:19:41.324Z,-3.82
2018-03-18T00:20:46.612Z,-3.86
2018-03-18T00:21:51.843Z,-3.88
2018-03-18T00:22:56.998Z,-3.82
2018-03-18T00:24:02.171Z,-4.01
2018-03-18T00:25:07.410Z,-4.05
2018-03-18T00:26:12.976Z,-4.06
2018-03-18T00:27:18.186Z,-4.06
2018-03-18T00:28:23.376Z,-4.13
2018-03-18T00:29:28.583Z,-4.12
2018-03-18T00:30:33.849Z,-4.22
2018-03-18T00:31:39.237Z,-4.18
2018-03-18T00:32:44.459Z,-4.09
2018-03-18T00:33:49.688Z,-4.03
2018-03-18T00:34:54.765Z,-4.06
2018-03-18T00:35:59.940Z,-4.06
2018-03-18T00:37:05.250Z,-4.09
2018-03-18T00:38:10.885Z,-3.95
2018-03-18T00:39:16.139Z,-3.92
2018-03-18T00:40:21.570Z,-3.90
2018-03-18T00:41:27.030Z,-3.98
2018-03-18T00:42:32.274Z,-4.05
2018-03-18T00:43:37.536Z,-4.17
2018-03-18T00:44:43.119Z,-4.23
2018-03-18T00:45:48.446Z,-4.03
2018-03-18T00:46:53.797Z,-4.10
2018-03-18T00:47:59.216Z,-4.06
2018-03-18T00:49:04.593Z,-4.05
2018-03-18T00:50:09.931Z,-4.11
2018-03-18T00:51:18.787Z,-4.00
2018-03-18T00:52:24.239Z,-3.92
2018-03-18T00:53:29.882Z,-3.79
2018-03-18T00:54:35.428Z,-3.88
2018-03-18T00:55:40.759Z,-4.06
2018-03-18T00:56:46.124Z,-3.99
2018-03-18T00:57:51.818Z,-3.87
2018-03-18T00:58:57.018Z,-3.81
2018-03-18T01:00:02.365Z,-3.78
2018-03-18T01:01:07.692Z,-3.90
2018-03-18T01:02:13.234Z,-3.94
2018-03-18T01:03:18.602Z,-4.06
2018-03-18T01:04:24.484Z,-3.96
2018-03-18T01:05:30.063Z,-3.98
2018-03-18T01:06:35.659Z,-3.98
2018-03-18T01:07:41.076Z,-3.83
2018-03-18T01:08:46.344Z,-3.96
2018-03-18T01:09:51.729Z,-4.06
2018-03-18T01:10:57.400Z,-4.13
2018-03-18T01:12:02.767Z,-4.25
2018-03-18T01:13:08.082Z,-4.19
2018-03-18T01:14:13.536Z,-4.05
2018-03-18T01:15:18.786Z,-4.03
2018-03-18T01:16:24.144Z,-4.09
2018-03-18T01:17:29.817Z,-4.20
2018-03-18T01:18:35.317Z,-4.12
2018-03-18T01:19:40.723Z,-4.06
2018-03-18T01:20:46.175Z,-4.09
2018-03-18T01:21:51.590Z,-4.03
2018-03-18T01:22:57.364Z,-4.05
2018-03-18T01:24:03.148Z,-4.04
2018-03-18T01:25:08.705Z,-4.06
2018-03-18T01:26:14.252Z,-4.02
2018-03-18T01:27:19.553Z,-4.04
2018-03-18T01:28:25.026Z,-4.07
2018-03-18T01:29:30.515Z,-4.04
2018-03-18T01:30:36.316Z,-3.89
2018-03-18T01:31:41.762Z,-3.93
2018-03-18T01:32:47.249Z,-4.04
2018-03-18T01:33:52.775Z,-3.89
2018-03-18T01:34:58.334Z,-3.94
2018-03-18T01:36:04.181Z,-3.97
2018-03-18T01:37:09.701Z,-4.02
2018-03-18T01:38:15.209Z,-3.99
2018-03-18T01:39:20.592Z,-3.93
2018-03-18T01:40:26.103Z,-3.87
2018-03-18T01:41:31.629Z,-4.03
2018-03-18T01:42:37.585Z,-4.03
2018-03-18T01:43:43.418Z,-3.95
2018-03-18T01:44:48.685Z,-3.93
2018-03-18T01:45:54.222Z,-3.98
2018-03-18T01:46:59.845Z,-4.07
2018-03-18T01:48:05.453Z,-4.07
2018-03-18T01:49:11.351Z,-4.04
2018-03-18T01:50:16.948Z,-4.03
2018-03-18T01:51:22.652Z,-4.06
2018-03-18T01:52:28.337Z,-4.18
2018-03-18T01:53:33.908Z,-4.22
2018-03-18T01:54:40.003Z,-4.24
2018-03-18T01:55:45.652Z,-4.15
2018-03-18T01:56:51.380Z,-4.10
2018-03-18T01:57:56.998Z,-4.09
2018-03-18T01:59:02.783Z,-4.19
2018-03-18T02:00:08.442Z,-4.16
2018-03-18T02:01:14.058Z,-4.12
2018-03-18T02:02:20.138Z,-4.08
2018-03-18T02:03:25.857Z,-4.12
2018-03-18T02:04:31.414Z,-3.99
2018-03-18T02:05:36.947Z,-4.01
2018-03-18T02:06:43.168Z,-4.01
2018-03-18T02:07:48.846Z,-3.97
2018-03-18T02:08:54.360Z,-3.92
2018-03-18T02:10:00.070Z,-3.88
2018-03-18T02:11:05.725Z,-3.98
2018-03-18T02:12:11.400Z,-4.20
2018-03-18T02:13:17.495Z,-4.18
2018-03-18T02:14:23.191Z,-4.08
2018-03-18T02:15:28.741Z,-4.03
2018-03-18T02:16:34.295Z,-3.88
2018-03-18T02:17:40.115Z,-3.97
2018-03-18T02:18:45.793Z,-3.97
2018-03-18T02:19:51.952Z,-3.97
2018-03-18T02:20:57.684Z,-4.24
2018-03-18T02:22:03.525Z,-4.13
2018-03-18T02:23:09.313Z,-4.12
2018-03-18T02:24:15.076Z,-4.18
2018-03-18T02:25:20.639Z,-4.08
2018-03-18T02:26:26.493Z,-4.05
2018-03-18T02:27:32.252Z,-4.03
2018-03-18T02:28:37.805Z,-4.04
2018-03-18T02:29:43.339Z,-4.02
2018-03-18T02:30:49.359Z,-4.17
2018-03-18T02:31:55.258Z,-4.27
2018-03-18T02:33:01.158Z,-4.27
2018-03-18T02:34:06.992Z,-4.19
2018-03-18T02:35:12.812Z,-4.12
2018-03-18T02:36:18.681Z,-4.15
2018-03-18T02:37:24.218Z,-4.08
2018-03-18T02:38:29.970Z,-4.23
2018-03-18T02:39:36.183Z,-4.21
2018-03-18T02:40:41.904Z,-4.19
2018-03-18T02:41:47.566Z,-4.22
2018-03-18T02:42:53.024Z,-4.13
2018-03-18T02:43:59.146Z,-4.23
2018-03-18T02:45:05.162Z,-4.24
2018-03-18T02:46:11.041Z,-4.27
2018-03-18T02:47:17.085Z,-4.26
2018-03-18T02:48:22.814Z,-4.13
2018-03-18T02:49:28.359Z,-4.08
2018-03-18T02:50:34.017Z,-3.98
2018-03-18T02:51:39.626Z,-4.01
2018-03-18T02:52:45.629Z,-4.12
2018-03-18T02:53:51.233Z,-4.12
2018-03-18T02:54:56.737Z,-4.24
2018-03-18T02:56:02.428Z,-4.25
2018-03-18T02:57:08.205Z,-4.29
2018-03-18T02:58:13.763Z,-4.29
2018-03-18T02:59:19.921Z,-4.29
2018-03-18T03:00:25.316Z,-4.15
2018-03-18T03:01:31.363Z,-4.12
2018-03-18T03:02:36.994Z,-4.17
2018-03-18T03:03:42.524Z,-4.10
2018-03-18T03:04:48.007Z,-4.23
2018-03-18T03:05:54.070Z,-4.24
2018-03-18T03:06:59.659Z,-4.21
2018-03-18T03:08:05.470Z,-4.18
2018-03-18T03:09:10.892Z,-4.08
2018-03-18T03:10:16.418Z,-4.05
2018-03-18T03:11:21.938Z,-3.96
2018-03-18T03:12:27.709Z,-3.93
2018-03-18T03:13:33.395Z,-3.90
2018-03-18T03:14:38.874Z,-4.04
2018-03-18T03:15:44.548Z,-4.13
2018-03-18T03:16:50.176Z,-4.11
2018-03-18T03:17:55.629Z,-4.09
2018-03-18T03:19:01.583Z,-4.02
2018-03-18T03:20:07.095Z,-3.97
2018-03-18T03:21:12.596Z,-3.91
2018-03-18T03:22:18.171Z,-3.96
2018-03-18T03:23:23.763Z,-3.94
2018-03-18T03:24:29.240Z,-3.87
2018-03-18T03:25:34.754Z,-3.97
2018-03-18T03:26:40.438Z,-4.07
2018-03-18T03:27:46.146Z,-3.95
2018-03-18T03:28:51.957Z,-4.04
2018-03-18T03:29:57.492Z,-4.16
2018-03-18T03:31:03.179Z,-4.08
2018-03-18T03:32:08.868Z,-4.05
2018-03-18T03:33:14.607Z,-4.16
2018-03-18T03:34:20.226Z,-4.09
2018-03-18T03:35:25.632Z,-3.98
2018-03-18T03:36:31.195Z,-3.96
2018-03-18T03:37:36.578Z,-4.01
2018-03-18T03:38:42.664Z,-4.10
2018-03-18T03:39:48.619Z,-4.01
2018-03-18T03:40:54.446Z,-3.95
2018-03-18T03:42:00.036Z,-3.97
2018-03-18T03:43:05.474Z,-4.09
2018-03-18T03:44:10.905Z,-3.97
2018-03-18T03:45:16.682Z,-3.98
2018-03-18T03:46:21.899Z,-4.09
2018-03-18T03:47:27.390Z,-4.12
2018-03-18T03:48:32.483Z,-4.01
2018-03-18T03:49:38.158Z,-3.94
2018-03-18T03:50:43.776Z,-3.91
2018-03-18T03:51:49.487Z,-4.13
2018-03-18T03:52:55.042Z,-4.15
2018-03-18T03:54:00.396Z,-4.06
2018-03-18T03:55:05.762Z,-4.05
2018-03-18T03:56:11.244Z,-3.96
2018-03-18T03:57:16.737Z,-4.03
2018-03-18T03:58:22.502Z,-3.98
2018-03-18T03:59:27.834Z,-4.02
2018-03-18T04:00:33.126Z,-4.16
2018-03-18T04:01:38.650Z,-4.10
2018-03-18T04:02:44.105Z,-4.07
2018-03-18T04:03:49.981Z,-4.02
2018-03-18T04:04:55.562Z,-3.99
2018-03-18T04:06:01.031Z,-3.99
2018-03-18T04:07:06.575Z,-4.07
2018-03-18T04:08:11.900Z,-4.07
2018-03-18T04:09:17.882Z,-4.01
2018-03-18T04:10:23.668Z,-4.00
2018-03-18T04:11:29.274Z,-4.04
2018-03-18T04:12:34.609Z,-4.01
2018-03-18T04:13:39.738Z,-3.95
2018-03-18T04:14:45.216Z,-3.99
2018-03-18T04:15:50.764Z,-4.02
2018-03-18T04:16:56.724Z,-4.01
2018-03-18T04:18:02.258Z,-4.14
2018-03-18T04:19:07.761Z,-4.12
2018-03-18T04:20:13.547Z,-4.07
2018-03-18T04:21:18.951Z,-4.15
2018-03-18T04:22:24.692Z,-4.22
2018-03-18T04:23:30.396Z,-4.13
2018-03-18T04:24:35.497Z,-4.12
2018-03-18T04:25:40.894Z,-4.05
2018-03-18T04:26:46.164Z,-3.99
2018-03-18T04:27:51.465Z,-4.07
2018-03-18T04:28:57.377Z,-4.11
2018-03-18T04:30:02.663Z,-4.18
2018-03-18T04:31:08.287Z,-4.24
2018-03-18T04:32:13.619Z,-4.22
2018-03-18T04:33:19.032Z,-4.08
2018-03-18T04:34:24.347Z,-4.17
2018-03-18T04:35:30.149Z,-4.20
2018-03-18T04:36:35.320Z,-4.35
2018-03-18T04:37:40.718Z,-4.24
2018-03-18T04:38:46.056Z,-4.20
2018-03-18T04:39:51.657Z,-4.15
2018-03-18T04:40:56.979Z,-4.18
2018-03-18T04:42:02.622Z,-4.16
2018-03-18T04:43:07.951Z,-4.21
2018-03-18T04:44:13.383Z,-4.07
2018-03-18T04:45:18.853Z,-4.12
2018-03-18T04:46:24.063Z,-4.16
2018-03-18T04:47:29.380Z,-4.07
2018-03-18T04:48:35.087Z,-4.06
2018-03-18T04:49:40.194Z,-4.10
2018-03-18T04:50:45.400Z,-4.17
2018-03-18T04:51:50.626Z,-4.16
2018-03-18T04:52:55.726Z,-4.16
2018-03-18T04:54:00.912Z,-4.17
2018-03-18T04:55:06.359Z,-4.14
2018-03-18T04:56:11.867Z,-4.22
2018-03-18T04:57:17.218Z,-4.29
2018-03-18T04:58:22.656Z,-4.22
2018-03-18T04:59:27.981Z,-4.24
2018-03-18T05:00:34.804Z,-4.27
2018-03-18T05:01:40.547Z,-4.35
2018-03-18T05:02:46.056Z,-4.35
2018-03-18T05:03:51.403Z,-4.32
2018-03-18T05:04:56.752Z,-4.42
2018-03-18T05:06:02.499Z,-4.31
2018-03-18T05:07:08.823Z,-4.35
2018-03-18T05:08:14.392Z,-4.46
2018-03-18T05:09:19.837Z,-4.33
2018-03-18T05:10:25.043Z,-4.41
2018-03-18T05:11:30.506Z,-4.33
2018-03-18T05:12:36.433Z,-4.50
2018-03-18T05:13:42.528Z,-4.51
2018-03-18T05:14:47.737Z,-4.52
2018-03-18T05:15:52.927Z,-4.44
2018-03-18T05:16:58.253Z,-4.33
2018-03-18T05:18:03.560Z,-4.28
2018-03-18T05:19:08.775Z,-4.44
2018-03-18T05:20:14.369Z,-4.43
2018-03-18T05:21:19.670Z,-4.43
2018-03-18T05:22:24.794Z,-4.53
2018-03-18T05:23:30.735Z,-4.48
2018-03-18T05:24:36.272Z,-4.38
2018-03-18T05:25:41.514Z,-4.50
2018-03-18T05:26:47.184Z,-4.36
2018-03-18T05:27:52.187Z,-4.31
2018-03-18T05:28:57.500Z,-4.31
2018-03-18T05:30:02.952Z,-4.30
2018-03-18T05:31:08.447Z,-4.41
2018-03-18T05:32:13.848Z,-4.46
2018-03-18T05:33:19.376Z,-4.55
2018-03-18T05:34:24.581Z,-4.56
2018-03-18T05:36:33.618Z,-4.58
2018-03-18T05:37:38.835Z,-4.64
2018-03-18T05:38:43.938Z,-4.49
2018-03-18T05:39:49.634Z,-4.47
2018-03-18T05:40:54.618Z,-4.47
2018-03-18T05:41:59.861Z,-4.60
2018-03-18T05:43:05.651Z,-4.71
2018-03-18T05:44:10.984Z,-4.63
2018-03-18T05:45:16.158Z,-4.59
2018-03-18T05:46:22.163Z,-4.71
2018-03-18T05:47:27.370Z,-4.67
2018-03-18T05:48:32.943Z,-4.54
2018-03-18T05:49:38.420Z,-4.46
2018-03-18T05:50:44.154Z,-4.52
2018-03-18T05:51:50.468Z,-4.59
2018-03-18T05:52:55.992Z,-4.49
2018-03-18T05:54:01.293Z,-4.46
2018-03-18T05:55:06.832Z,-4.41
2018-03-18T05:56:12.540Z,-4.48
2018-03-18T05:57:17.878Z,-4.52
2018-03-18T05:58:23.742Z,-4.48
2018-03-18T05:59:29.144Z,-4.47
2018-03-18T06:00:34.754Z,-4.44
2018-03-18T06:01:40.441Z,-4.56
2018-03-18T06:02:45.769Z,-4.66
2018-03-18T06:03:51.097Z,-4.57
2018-03-18T06:04:56.887Z,-4.47
2018-03-18T06:06:02.521Z,-4.48
2018-03-18T06:07:08.237Z,-4.55
2018-03-18T06:08:13.851Z,-4.66
2018-03-18T06:09:19.435Z,-4.70
2018-03-18T06:10:24.979Z,-4.57
2018-03-18T06:11:30.983Z,-4.48
2018-03-18T06:12:36.601Z,-4.63
2018-03-18T06:13:42.339Z,-4.49
2018-03-18T06:14:48.112Z,-4.50
2018-03-18T06:15:54.188Z,-4.46
2018-03-18T06:16:59.923Z,-4.35
2018-03-18T06:18:05.737Z,-4.27
2018-03-18T06:19:11.407Z,-4.25
2018-03-18T06:20:16.857Z,-4.27
2018-03-18T06:21:22.607Z,-4.24
2018-03-18T06:22:28.012Z,-4.07
2018-03-18T06:23:33.621Z,-4.08
2018-03-18T06:24:39.332Z,-4.17
2018-03-18T06:25:44.790Z,-4.11
2018-03-18T06:26:50.305Z,-4.17
2018-03-18T06:27:56.000Z,-4.34
2018-03-18T06:29:01.810Z,-4.39
2018-03-18T06:30:07.335Z,-4.46
2018-03-18T06:31:12.952Z,-4.43
2018-03-18T06:32:18.415Z,-4.29
2018-03-18T06:33:24.278Z,-4.33
2018-03-18T06:34:30.054Z,-4.35
2018-03-18T06:35:35.418Z,-4.20
2018-03-18T06:36:40.992Z,-4.24
2018-03-18T06:37:46.743Z,-4.19
2018-03-18T06:38:52.322Z,-4.33
2018-03-18T06:39:57.822Z,-4.29
2018-03-18T06:41:03.737Z,-4.15
2018-03-18T06:42:09.489Z,-4.20
2018-03-18T06:43:15.229Z,-4.22
2018-03-18T06:44:21.133Z,-4.16
2018-03-18T06:45:27.088Z,-4.23
2018-03-18T06:46:32.553Z,-4.40
2018-03-18T06:47:38.660Z,-4.31
2018-03-18T06:48:44.496Z,-4.25
2018-03-18T06:49:49.997Z,-4.30
2018-03-18T06:50:56.181Z,-4.18
2018-03-18T06:52:01.917Z,-3.97
2018-03-18T06:53:07.738Z,-3.85
2018-03-18T06:54:13.259Z,-3.65
2018-03-18T06:55:18.980Z,-3.67
2018-03-18T06:56:24.830Z,-3.89
2018-03-18T06:57:30.683Z,-3.90
2018-03-18T06:58:36.485Z,-3.71
2018-03-18T06:59:42.003Z,-3.68
2018-03-18T07:00:47.628Z,-3.47
2018-03-18T07:01:53.301Z,-3.43
2018-03-18T07:02:58.982Z,-3.47
2018-03-18T07:04:05.010Z,-3.48
2018-03-18T07:05:10.696Z,-3.75
2018-03-18T07:06:16.501Z,-3.75
2018-03-18T07:07:22.126Z,-3.70
2018-03-18T07:08:27.855Z,-3.56
2018-03-18T07:09:33.712Z,-3.35
2018-03-18T07:10:39.631Z,-3.17
2018-03-18T07:11:45.425Z,-3.13
2018-03-18T07:12:50.996Z,-2.88
2018-03-18T07:13:56.751Z,-2.69
2018-03-18T07:15:02.450Z,-2.50
2018-03-18T07:16:07.988Z,-2.75
2018-03-18T07:17:13.699Z,-2.74
2018-03-18T07:18:19.249Z,-2.68
2018-03-18T07:19:24.889Z,-2.45
2018-03-18T07:20:30.523Z,-2.32
2018-03-18T07:21:35.983Z,-2.50
2018-03-18T07:22:41.507Z,-2.49
2018-03-18T07:23:47.290Z,-2.57
2018-03-18T07:24:52.847Z,-2.99
2018-03-18T07:25:58.514Z,-2.96
2018-03-18T07:27:04.013Z,-2.95
2018-03-18T07:28:09.459Z,-2.76
2018-03-18T07:29:14.962Z,-2.98
2018-03-18T07:30:20.925Z,-2.79
2018-03-18T07:31:26.375Z,-3.02
2018-03-18T07:32:31.902Z,-2.86
2018-03-18T07:33:37.641Z,-2.60
2018-03-18T07:34:42.911Z,-2.13
2018-03-18T07:35:48.198Z,-2.10
2018-03-18T07:36:54.160Z,-1.98
2018-03-18T07:37:59.534Z,-1.95
2018-03-18T07:39:04.962Z,-2.22
2018-03-18T07:40:10.094Z,-2.38
2018-03-18T07:41:15.311Z,-2.22
2018-03-18T07:42:20.604Z,-2.35
2018-03-18T07:43:26.051Z,-2.60
2018-03-18T07:44:31.314Z,-2.66
2018-03-18T07:45:36.696Z,-3.05
2018-03-18T07:46:42.096Z,-3.24
2018-03-18T07:47:47.603Z,-3.19
2018-03-18T07:48:53.752Z,-3.01
2018-03-18T07:49:59.337Z,-3.21
2018-03-18T07:51:04.715Z,-3.44
2018-03-18T07:52:10.258Z,-3.74
2018-03-18T07:53:15.445Z,-3.72
2018-03-18T07:54:20.850Z,-3.63
2018-03-18T07:55:26.134Z,-3.41
2018-03-18T07:56:31.638Z,-3.22
2018-03-18T07:57:36.921Z,-3.17
2018-03-18T07:58:42.306Z,-2.73
2018-03-18T07:59:47.711Z,-2.70
2018-03-18T08:00:53.196Z,-2.67
2018-03-18T08:01:58.559Z,-2.82
2018-03-18T08:03:04.273Z,-3.43
2018-03-18T08:04:09.549Z,-3.47
2018-03-18T08:05:14.941Z,-3.21
2018-03-18T08:06:20.298Z,-3.28
2018-03-18T08:07:25.738Z,-3.04
2018-03-18T08:08:31.106Z,-2.85
2018-03-18T08:09:36.983Z,-2.73
2018-03-18T08:10:42.365Z,-2.64
2018-03-18T08:11:47.774Z,-2.58
2018-03-18T08:12:53.165Z,-2.74
2018-03-18T08:13:58.479Z,-2.94
2018-03-18T08:15:04.063Z,-2.39
2018-03-18T08:16:10.136Z,-2.54
2018-03-18T08:17:15.531Z,-2.96
2018-03-18T08:18:20.813Z,-2.92
2018-03-18T08:19:26.148Z,-2.91
2018-03-18T08:20:31.658Z,-2.70
2018-03-18T08:21:37.050Z,-2.79
2018-03-18T08:22:42.901Z,-2.64
2018-03-18T08:23:48.299Z,-2.26
2018-03-18T08:24:53.787Z,-1.98
2018-03-18T08:25:59.117Z,-2.09
2018-03-18T08:27:04.393Z,-1.94
2018-03-18T08:28:09.872Z,-1.64
2018-03-18T08:29:15.904Z,-1.82
2018-03-18T08:30:21.315Z,-1.88
2018-03-18T08:31:26.625Z,-1.99
2018-03-18T08:32:31.883Z,-2.14
2018-03-18T08:33:37.092Z,-2.31
2018-03-18T08:34:42.519Z,-2.51
2018-03-18T08:35:48.392Z,-2.35
2018-03-18T08:36:53.718Z,-2.12
2018-03-18T08:37:58.942Z,-2.01
2018-03-18T08:39:04.440Z,-1.89
2018-03-18T08:40:09.917Z,-1.81
2018-03-18T08:41:16.769Z,-1.59
2018-03-18T08:42:26.141Z,-1.73
2018-03-18T08:43:31.619Z,-2.08
2018-03-18T08:44:36.932Z,-2.13
2018-03-18T08:45:42.232Z,-2.03
2018-03-18T08:46:47.685Z,-2.05
2018-03-18T08:47:53.478Z,-1.50
2018-03-18T08:48:59.181Z,-1.47
2018-03-18T08:50:04.637Z,-1.33
2018-03-18T08:51:09.800Z,-1.29
2018-03-18T08:52:15.165Z,-1.28
2018-03-18T08:53:20.362Z,-1.42
2018-03-18T08:54:26.059Z,-1.42
2018-03-18T08:55:31.292Z,-1.53
2018-03-18T08:56:36.526Z,-1.57
2018-03-18T08:57:41.698Z,-1.55
2018-03-18T08:58:47.004Z,-1.28
2018-03-18T08:59:52.485Z,-1.30
2018-03-18T09:00:57.864Z,-1.48
2018-03-18T09:02:03.095Z,-1.33
2018-03-18T09:03:08.313Z,-1.52
2018-03-18T09:04:13.574Z,-1.54
2018-03-18T09:05:18.854Z,-1.70
2018-03-18T09:06:25.118Z,-1.70
2018-03-18T09:07:30.380Z,-1.67
2018-03-18T09:08:35.607Z,-1.69
2018-03-18T09:09:40.912Z,-2.06
2018-03-18T09:10:47.916Z,-2.06
2018-03-18T09:11:53.066Z,-1.87
2018-03-18T09:12:58.563Z,-1.85
2018-03-18T09:14:03.646Z,-1.76
2018-03-18T09:15:08.868Z,-1.62
2018-03-18T09:16:14.151Z,-1.39
2018-03-18T09:17:19.256Z,-1.74
2018-03-18T09:18:24.555Z,-1.61
2018-03-18T09:19:30.129Z,-2.00
2018-03-18T09:20:35.388Z,-1.90
2018-03-18T09:21:40.754Z,-1.85
2018-03-18T09:22:46.052Z,-1.85
2018-03-18T09:23:51.420Z,-1.98
2018-03-18T09:24:56.600Z,-2.28
2018-03-18T09:26:02.239Z,-2.26
2018-03-18T09:27:07.446Z,-2.25
2018-03-18T09:28:12.627Z,-2.15
2018-03-18T09:29:17.926Z,-2.54
2018-03-18T09:30:23.003Z,-2.40
2018-03-18T09:31:28.216Z,-2.09
2018-03-18T09:32:33.802Z,-2.27
2018-03-18T09:33:38.985Z,-2.47
2018-03-18T09:34:45.548Z,-1.82
2018-03-18T09:35:50.745Z,-1.87
2018-03-18T09:36:55.863Z,-2.16
2018-03-18T09:38:01.139Z,-1.67
2018-03-18T09:39:06.648Z,-0.98
2018-03-18T09:40:11.774Z,-1.53
2018-03-18T09:41:16.853Z,-1.64
2018-03-18T09:42:22.006Z,-1.55
2018-03-18T09:43:27.109Z,-1.90
2018-03-18T09:44:32.232Z,-1.94
2018-03-18T09:45:37.988Z,-1.83
2018-03-18T09:46:43.692Z,-2.23
2018-03-18T09:47:48.842Z,-2.15
2018-03-18T09:48:54.122Z,-1.96
2018-03-18T09:49:59.238Z,-1.79
2018-03-18T09:51:04.503Z,-2.09
2018-03-18T09:52:09.974Z,-2.12
2018-03-18T09:53:15.092Z,-1.80
2018-03-18T09:54:20.211Z,-1.66
2018-03-18T09:55:25.445Z,-1.56
2018-03-18T09:56:30.441Z,-1.56
2018-03-18T09:57:35.572Z,-2.10
2018-03-18T09:58:40.929Z,-2.08
2018-03-18T09:59:46.841Z,-1.84
2018-03-18T10:00:51.781Z,-1.91
2018-03-18T10:01:56.897Z,-2.47
2018-03-18T10:03:02.360Z,-2.33
2018-03-18T10:04:07.373Z,-2.39
2018-03-18T10:05:13.022Z,-2.36
2018-03-18T10:06:18.055Z,-2.37
2018-03-18T10:07:23.180Z,-2.42
2018-03-18T10:08:28.290Z,-2.16
2018-03-18T10:09:33.539Z,-2.10
2018-03-18T10:10:38.612Z,-2.11
2018-03-18T10:11:44.208Z,-1.96
2018-03-18T10:12:49.605Z,-2.01
2018-03-18T10:13:54.844Z,-2.30
2018-03-18T10:14:59.867Z,-2.07
2018-03-18T10:16:04.908Z,-1.99
2018-03-18T10:17:10.076Z,-2.33
2018-03-18T10:18:15.513Z,-2.39
2018-03-18T10:19:20.586Z,-2.45
2018-03-18T10:20:25.818Z,-2.49
2018-03-18T10:21:30.897Z,-2.74
2018-03-18T10:22:35.720Z,-2.92
2018-03-18T10:23:40.780Z,-2.77
2018-03-18T10:24:46.379Z,-2.94
2018-03-18T10:25:51.598Z,-2.74
2018-03-18T10:26:56.751Z,-2.85
2018-03-18T10:28:01.927Z,-2.63
2018-03-18T10:29:07.192Z,-2.45
2018-03-18T10:30:12.279Z,-2.45
2018-03-18T10:31:18.025Z,-2.47
2018-03-18T10:32:23.315Z,-2.48
2018-03-18T10:33:30.176Z,-2.50
2018-03-18T10:34:35.337Z,-2.44
2018-03-18T10:35:40.475Z,-2.15
2018-03-18T10:36:45.511Z,-2.12
2018-03-18T10:37:51.013Z,-2.27
2018-03-18T10:38:56.105Z,-2.16
2018-03-18T10:40:01.340Z,-2.26
2018-03-18T10:41:06.491Z,-2.12
2018-03-18T10:42:11.731Z,-1.89
2018-03-18T10:43:17.015Z,-1.81
2018-03-18T10:44:23.755Z,-1.82
2018-03-18T10:45:29.350Z,-1.74
2018-03-18T10:46:34.547Z,-1.73
2018-03-18T10:47:39.717Z,-1.86
2018-03-18T10:48:44.773Z,-2.06
2018-03-18T10:49:49.858Z,-1.75
2018-03-18T10:50:55.646Z,-1.61
2018-03-18T10:52:00.874Z,-1.31
2018-03-18T10:53:05.960Z,-1.26
2018-03-18T10:54:11.065Z,-1.33
2018-03-18T10:55:16.056Z,-1.24
2018-03-18T10:56:21.296Z,-0.95
2018-03-18T10:57:26.896Z,-1.19
2018-03-18T10:58:32.301Z,-1.24
2018-03-18T10:59:37.579Z,-1.04
2018-03-18T11:00:45.091Z,-0.88
2018-03-18T11:01:50.483Z,-1.15
2018-03-18T11:02:56.743Z,-1.31
2018-03-18T11:04:06.224Z,-1.22
2018-03-18T11:05:11.247Z,-1.06
2018-03-18T11:06:16.352Z,-0.87
2018-03-18T11:07:22.104Z,-0.88
2018-03-18T11:08:27.385Z,-0.87
2018-03-18T11:09:32.525Z,-0.83
2018-03-18T11:10:38.343Z,-0.89
2018-03-18T11:11:43.566Z,-0.61
2018-03-18T11:12:48.664Z,-1.02
2018-03-18T11:13:53.757Z,-0.64
2018-03-18T11:14:58.898Z,-0.66
2018-03-18T11:16:05.471Z,-0.44
2018-03-18T11:17:10.843Z,-0.36
2018-03-18T11:18:16.283Z,-0.42
2018-03-18T11:19:21.577Z,-0.06
2018-03-18T11:20:26.502Z,0.06
2018-03-18T11:21:31.521Z,-0.02
2018-03-18T11:22:37.253Z,-0.13
2018-03-18T11:23:42.488Z,-0.27
2018-03-18T11:24:47.687Z,-0.41
2018-03-18T11:25:52.808Z,-0.39
2018-03-18T11:26:58.107Z,-0.48
2018-03-18T11:28:03.262Z,-0.68
2018-03-18T11:29:08.981Z,-0.46
2018-03-18T11:30:14.164Z,-0.50
2018-03-18T11:31:19.497Z,-0.46
2018-03-18T11:32:24.768Z,-0.68
2018-03-18T11:33:30.154Z,-0.83
2018-03-18T11:34:35.351Z,-0.83
2018-03-18T11:35:41.796Z,-0.62
2018-03-18T11:36:46.880Z,-0.72
2018-03-18T11:37:52.189Z,-1.04
2018-03-18T11:38:57.569Z,-0.79
2018-03-18T11:40:03.332Z,-0.66
2018-03-18T11:41:08.681Z,-0.53
2018-03-18T11:42:14.142Z,-0.38
2018-03-18T11:43:19.297Z,-0.55
2018-03-18T11:44:24.901Z,-0.82
2018-03-18T11:45:30.175Z,-1.02
2018-03-18T11:46:35.686Z,-0.90
2018-03-18T11:47:40.883Z,-0.83
2018-03-18T11:48:47.423Z,-0.91
2018-03-18T11:49:52.983Z,-0.85
2018-03-18T11:50:58.387Z,-0.80
2018-03-18T11:52:03.693Z,-0.75
2018-03-18T11:53:08.914Z,-0.66
2018-03-18T11:54:13.965Z,-0.67
2018-03-18T11:55:19.743Z,-0.67
2018-03-18T11:56:25.238Z,-0.73
2018-03-18T11:57:30.875Z,-1.05
2018-03-18T11:58:37.002Z,-1.01
2018-03-18T11:59:42.578Z,-1.06
2018-03-18T12:00:47.715Z,-0.74
2018-03-18T12:01:53.901Z,-0.77
2018-03-18T12:02:59.313Z,-0.92
2018-03-18T12:04:05.373Z,-0.86
2018-03-18T12:05:10.673Z,-0.76
2018-03-18T12:06:16.185Z,-0.86
2018-03-18T12:07:21.411Z,-1.13
2018-03-18T12:08:31.632Z,-1.18
2018-03-18T12:09:37.596Z,-1.00
2018-03-18T12:10:43.199Z,-1.03
2018-03-18T12:11:48.820Z,-1.13
2018-03-18T12:12:54.307Z,-0.84
2018-03-18T12:13:59.968Z,-0.95
2018-03-18T12:15:06.370Z,-1.08
2018-03-18T12:16:11.826Z,-0.88
2018-03-18T12:17:18.412Z,-0.57
2018-03-18T12:18:24.637Z,-0.73
2018-03-18T12:19:31.419Z,-0.73
2018-03-18T12:20:38.244Z,-0.64
2018-03-18T12:21:45.763Z,-0.78
2018-03-18T12:22:53.901Z,-0.74
2018-03-18T12:23:59.639Z,-0.48
2018-03-18T12:25:04.994Z,-0.30
2018-03-18T12:26:11.287Z,-0.13
2018-03-18T12:27:17.480Z,-0.23
2018-03-18T12:28:26.072Z,0.09
2018-03-18T12:29:34.062Z,0.13
2018-03-18T12:30:43.118Z,-0.03
2018-03-18T12:31:52.726Z,-0.30
2018-03-18T12:33:01.275Z,-0.19
2018-03-18T12:34:08.092Z,-0.10
2018-03-18T12:35:14.065Z,-0.03
2018-03-18T12:36:19.815Z,0.03
2018-03-18T12:37:25.367Z,-0.02
2018-03-18T12:38:31.018Z,-0.11
2018-03-18T12:39:42.129Z,-0.02
2018-03-18T12:40:53.980Z,-0.07
2018-03-18T12:42:01.187Z,-0.19
2018-03-18T12:43:11.568Z,-0.02
2018-03-18T12:44:16.979Z,-0.01
2018-03-18T12:45:22.671Z,0.03
2018-03-18T12:46:28.090Z,0.04
2018-03-18T12:47:34.878Z,-0.21
2018-03-18T12:48:40.843Z,-0.16
2018-03-18T12:49:46.187Z,0.12
2018-03-18T12:50:51.671Z,0.17
2018-03-18T12:51:57.356Z,0.48
2018-03-18T12:53:03.194Z,0.45
2018-03-18T12:54:08.883Z,0.30
2018-03-18T12:55:14.333Z,0.45
2018-03-18T12:56:21.718Z,0.49
2018-03-18T12:57:31.643Z,0.24
2018-03-18T12:58:37.238Z,0.07
2018-03-18T12:59:42.972Z,-0.04
2018-03-18T13:00:49.301Z,0.19
2018-03-18T13:01:54.710Z,0.13
2018-03-18T13:03:03.359Z,0.37
2018-03-18T13:04:11.165Z,0.08
2018-03-18T13:05:17.273Z,-0.23
2018-03-18T13:06:24.353Z,-0.02
2018-03-18T13:07:31.426Z,-0.08
2018-03-18T13:08:36.947Z,-0.21
2018-03-18T13:09:42.878Z,-0.23
2018-03-18T13:10:50.213Z,-0.43
2018-03-18T13:11:56.427Z,-0.42
2018-03-18T13:13:03.856Z,-0.38
2018-03-18T13:14:09.864Z,-0.26
2018-03-18T13:15:15.497Z,-0.25
2018-03-18T13:16:22.240Z,-0.49
2018-03-18T13:17:29.910Z,-0.28
2018-03-18T13:18:36.973Z,-0.07
2018-03-18T13:19:44.097Z,-0.03
2018-03-18T13:20:50.586Z,-0.29
2018-03-18T13:21:55.664Z,-0.19
2018-03-18T13:23:01.699Z,-0.16
2018-03-18T13:24:08.216Z,-0.13
2018-03-18T13:25:14.895Z,-0.31
2018-03-18T13:26:21.175Z,-0.07
2018-03-18T13:27:26.793Z,-0.17
2018-03-18T13:28:35.622Z,-0.19
2018-03-18T13:29:41.342Z,-0.16
2018-03-18T13:30:48.079Z,-0.20
2018-03-18T13:31:54.887Z,-0.07
2018-03-18T13:33:03.879Z,-0.50
2018-03-18T13:34:11.585Z,-0.43
2018-03-18T13:35:22.851Z,-0.44
2018-03-18T13:36:29.567Z,-0.39
2018-03-18T13:37:37.842Z,-0.46
2018-03-18T13:38:45.158Z,-0.39
2018-03-18T13:39:52.012Z,-0.80
2018-03-18T13:40:59.974Z,-0.78
2018-03-18T13:42:05.923Z,-0.61
2018-03-18T13:43:13.371Z,-0.52
2018-03-18T13:44:19.221Z,-0.44
2018-03-18T13:45:24.472Z,-0.44
2018-03-18T13:46:29.857Z,-0.70
2018-03-18T13:47:35.624Z,-0.58
2018-03-18T13:48:42.671Z,-0.45
2018-03-18T13:49:49.848Z,-0.55
2018-03-18T13:50:56.170Z,-0.47
2018-03-18T13:52:02.093Z,-0.42
2018-03-18T13:53:08.627Z,-0.52
2018-03-18T13:54:14.874Z,-0.30
2018-03-18T13:55:21.716Z,-0.29
2018-03-18T13:56:27.575Z,-0.37
2018-03-18T13:57:35.531Z,-0.28
2018-03-18T13:58:46.218Z,-0.29
2018-03-18T13:59:53.111Z,-0.46
2018-03-18T14:01:01.030Z,-0.39
2018-03-18T14:02:07.178Z,-0.25
2018-03-18T14:03:13.435Z,-0.06
2018-03-18T14:04:18.683Z,-0.12
2018-03-18T14:05:25.080Z,-0.03
2018-03-18T14:06:34.495Z,0.14
2018-03-18T14:07:40.191Z,0.04